Terminal Aerodrome Forecast
Issued by NWS

Current Version | Previous Version | Text Only | Print | Product List | Glossary On
Versions: 1 2 3 4 5 6 7 8 9 10 11 12 13 14 15 16 17 18 19 20 21 22 23 24 25 26 27 28 29 30 31
447
FTUS41 KOKX 201933 AAA
TAFHPN
TAF AMD
KHPN 201933Z 2020/2118 22005KT P6SM BKN250
     FM202300 21004KT 5SM BR SCT007 BKN250
     FM210200 VRB03KT 1SM BR BKN004
     FM210400 VRB03KT 1/2SM FG BKN004
     FM211500 22007KT 2SM BR BKN007
     FM211700 22009G17KT 6SM BR SCT007 BKN020
      AMD NOT SKED=

USA.gov is the U.S. government's official web portal to all federal, state and local government web resources and services.